sensor_id;sensor_type;location;lat;lon;timestamp;P1;durP1;ratioP1;P2;durP2;ratioP2
18162;SDS011;9206;50.994;4.538;2024-03-08T00:01:12;25.37;;;17.23;;
18162;SDS011;9206;50.994;4.538;2024-03-08T00:03:59;26.13;;;16.73;;
18162;SDS011;9206;50.994;4.538;2024-03-08T00:06:46;27.47;;;16.63;;
18162;SDS011;9206;50.994;4.538;2024-03-08T00:12:24;31.77;;;18.63;;
18162;SDS011;9206;50.994;4.538;2024-03-08T00:15:16;27.77;;;17.73;;
18162;SDS011;9206;50.994;4.538;2024-03-08T00:18:10;34.20;;;18.50;;
18162;SDS011;9206;50.994;4.538;2024-03-08T00:21:00;30.97;;;19.00;;
18162;SDS011;9206;50.994;4.538;2024-03-08T00:26:43;29.63;;;19.43;;
18162;SDS011;9206;50.994;4.538;2024-03-08T00:29:33;31.43;;;18.37;;
18162;SDS011;9206;50.994;4.538;2024-03-08T00:32:24;29.60;;;18.20;;
18162;SDS011;9206;50.994;4.538;2024-03-08T00:35:15;29.87;;;19.00;;
18162;SDS011;9206;50.994;4.538;2024-03-08T00:38:06;34.87;;;19.50;;
18162;SDS011;9206;50.994;4.538;2024-03-08T00:40:53;30.87;;;18.90;;
18162;SDS011;9206;50.994;4.538;2024-03-08T00:46:33;28.53;;;18.40;;
18162;SDS011;9206;50.994;4.538;2024-03-08T00:49:23;29.37;;;19.13;;
18162;SDS011;9206;50.994;4.538;2024-03-08T00:52:13;30.07;;;19.13;;
18162;SDS011;9206;50.994;4.538;2024-03-08T00:55:01;27.37;;;17.83;;
18162;SDS011;9206;50.994;4.538;2024-03-08T00:57:50;29.70;;;18.57;;
18162;SDS011;9206;50.994;4.538;2024-03-08T01:00:38;27.30;;;18.07;;
18162;SDS011;9206;50.994;4.538;2024-03-08T01:03:39;30.20;;;19.43;;
18162;SDS011;9206;50.994;4.538;2024-03-08T01:06:31;32.73;;;19.73;;
18162;SDS011;9206;50.994;4.538;2024-03-08T01:09:18;27.33;;;18.53;;
18162;SDS011;9206;50.994;4.538;2024-03-08T01:12:07;30.33;;;19.53;;
18162;SDS011;9206;50.994;4.538;2024-03-08T01:14:55;31.73;;;20.30;;
18162;SDS011;9206;50.994;4.538;2024-03-08T01:17:43;30.27;;;19.47;;
18162;SDS011;9206;50.994;4.538;2024-03-08T01:20:31;29.33;;;19.63;;
18162;SDS011;9206;50.994;4.538;2024-03-08T01:23:22;30.93;;;19.17;;
18162;SDS011;9206;50.994;4.538;2024-03-08T01:29:00;30.03;;;18.80;;
18162;SDS011;9206;50.994;4.538;2024-03-08T01:31:48;29.43;;;18.50;;
18162;SDS011;9206;50.994;4.538;2024-03-08T01:34:38;30.67;;;19.07;;
18162;SDS011;9206;50.994;4.538;2024-03-08T01:37:27;26.97;;;18.90;;
18162;SDS011;9206;50.994;4.538;2024-03-08T01:40:18;28.30;;;19.27;;
18162;SDS011;9206;50.994;4.538;2024-03-08T01:43:16;27.30;;;18.20;;
18162;SDS011;9206;50.994;4.538;2024-03-08T01:46:04;32.90;;;18.17;;
18162;SDS011;9206;50.994;4.538;2024-03-08T01:48:54;28.50;;;19.27;;
18162;SDS011;9206;50.994;4.538;2024-03-08T01:51:47;29.10;;;19.47;;
18162;SDS011;9206;50.994;4.538;2024-03-08T01:54:34;28.23;;;19.03;;
18162;SDS011;9206;50.994;4.538;2024-03-08T01:57:25;27.50;;;18.33;;
18162;SDS011;9206;50.994;4.538;2024-03-08T02:00:12;31.17;;;18.80;;
18162;SDS011;9206;50.994;4.538;2024-03-08T02:03:01;25.50;;;18.50;;
18162;SDS011;9206;50.994;4.538;2024-03-08T02:05:49;27.10;;;19.70;;
18162;SDS011;9206;50.994;4.538;2024-03-08T02:08:37;26.43;;;18.97;;
18162;SDS011;9206;50.994;4.538;2024-03-08T02:11:26;29.97;;;19.17;;
18162;SDS011;9206;50.994;4.538;2024-03-08T02:14:19;26.63;;;18.40;;
18162;SDS011;9206;50.994;4.538;2024-03-08T02:19:57;23.80;;;17.90;;
18162;SDS011;9206;50.994;4.538;2024-03-08T02:22:50;24.97;;;18.73;;
18162;SDS011;9206;50.994;4.538;2024-03-08T02:25:40;27.73;;;19.47;;
18162;SDS011;9206;50.994;4.538;2024-03-08T02:28:31;27.40;;;18.40;;
18162;SDS011;9206;50.994;4.538;2024-03-08T02:31:21;26.20;;;18.87;;
18162;SDS011;9206;50.994;4.538;2024-03-08T02:34:11;26.73;;;19.03;;
18162;SDS011;9206;50.994;4.538;2024-03-08T02:37:05;26.50;;;18.77;;
18162;SDS011;9206;50.994;4.538;2024-03-08T02:39:58;25.57;;;18.50;;
18162;SDS011;9206;50.994;4.538;2024-03-08T02:42:45;27.63;;;19.60;;
18162;SDS011;9206;50.994;4.538;2024-03-08T02:45:32;24.30;;;18.70;;
18162;SDS011;9206;50.994;4.538;2024-03-08T02:48:30;27.33;;;19.33;;
18162;SDS011;9206;50.994;4.538;2024-03-08T02:51:25;27.87;;;18.50;;
18162;SDS011;9206;50.994;4.538;2024-03-08T02:54:16;26.80;;;19.47;;
18162;SDS011;9206;50.994;4.538;2024-03-08T02:57:06;24.83;;;18.87;;
18162;SDS011;9206;50.994;4.538;2024-03-08T03:02:45;27.33;;;19.93;;
18162;SDS011;9206;50.994;4.538;2024-03-08T03:08:24;24.67;;;19.53;;
18162;SDS011;9206;50.994;4.538;2024-03-08T03:11:16;26.60;;;19.60;;
18162;SDS011;9206;50.994;4.538;2024-03-08T03:14:04;30.07;;;20.53;;
18162;SDS011;9206;50.994;4.538;2024-03-08T03:16:54;24.17;;;19.63;;
18162;SDS011;9206;50.994;4.538;2024-03-08T03:19:41;27.03;;;19.60;;
18162;SDS011;9206;50.994;4.538;2024-03-08T03:22:28;25.60;;;18.97;;
18162;SDS011;9206;50.994;4.538;2024-03-08T03:25:16;26.07;;;19.30;;
18162;SDS011;9206;50.994;4.538;2024-03-08T03:28:10;28.57;;;20.93;;
18162;SDS011;9206;50.994;4.538;2024-03-08T03:31:04;29.00;;;20.37;;
18162;SDS011;9206;50.994;4.538;2024-03-08T03:33:51;27.33;;;19.37;;
18162;SDS011;9206;50.994;4.538;2024-03-08T03:36:42;29.87;;;19.20;;
18162;SDS011;9206;50.994;4.538;2024-03-08T03:39:32;32.37;;;20.10;;
18162;SDS011;9206;50.994;4.538;2024-03-08T03:42:19;23.90;;;19.33;;
18162;SDS011;9206;50.994;4.538;2024-03-08T03:45:09;31.13;;;20.23;;
18162;SDS011;9206;50.994;4.538;2024-03-08T03:50:59;31.10;;;20.47;;
18162;SDS011;9206;50.994;4.538;2024-03-08T03:56:38;27.87;;;20.13;;
18162;SDS011;9206;50.994;4.538;2024-03-08T03:59:29;26.57;;;19.97;;
18162;SDS011;9206;50.994;4.538;2024-03-08T04:02:19;32.33;;;20.30;;
18162;SDS011;9206;50.994;4.538;2024-03-08T04:05:09;31.53;;;20.27;;
18162;SDS011;9206;50.994;4.538;2024-03-08T04:07:58;26.83;;;20.20;;
18162;SDS011;9206;50.994;4.538;2024-03-08T04:10:46;30.20;;;20.47;;
18162;SDS011;9206;50.994;4.538;2024-03-08T04:13:35;27.07;;;20.20;;
18162;SDS011;9206;50.994;4.538;2024-03-08T04:16:25;30.10;;;21.00;;
18162;SDS011;9206;50.994;4.538;2024-03-08T04:19:13;26.43;;;19.30;;
18162;SDS011;9206;50.994;4.538;2024-03-08T04:22:05;29.53;;;20.77;;
18162;SDS011;9206;50.994;4.538;2024-03-08T04:24:55;27.27;;;20.10;;
18162;SDS011;9206;50.994;4.538;2024-03-08T04:27:46;33.57;;;20.87;;
18162;SDS011;9206;50.994;4.538;2024-03-08T04:30:37;28.07;;;20.10;;
18162;SDS011;9206;50.994;4.538;2024-03-08T04:33:25;31.17;;;20.37;;
18162;SDS011;9206;50.994;4.538;2024-03-08T04:36:14;32.83;;;20.67;;
18162;SDS011;9206;50.994;4.538;2024-03-08T04:39:03;30.50;;;21.30;;
18162;SDS011;9206;50.994;4.538;2024-03-08T04:41:54;30.33;;;20.33;;
18162;SDS011;9206;50.994;4.538;2024-03-08T04:44:42;30.80;;;21.73;;
18162;SDS011;9206;50.994;4.538;2024-03-08T04:47:29;27.53;;;20.83;;
18162;SDS011;9206;50.994;4.538;2024-03-08T04:50:18;29.30;;;20.57;;
18162;SDS011;9206;50.994;4.538;2024-03-08T04:53:06;29.03;;;21.00;;
18162;SDS011;9206;50.994;4.538;2024-03-08T04:55:55;29.17;;;19.73;;
18162;SDS011;9206;50.994;4.538;2024-03-08T04:58:46;30.27;;;21.13;;
18162;SDS011;9206;50.994;4.538;2024-03-08T05:01:37;30.73;;;20.50;;
18162;SDS011;9206;50.994;4.538;2024-03-08T05:04:28;30.17;;;20.07;;
18162;SDS011;9206;50.994;4.538;2024-03-08T05:07:16;27.33;;;19.97;;
18162;SDS011;9206;50.994;4.538;2024-03-08T05:10:11;29.50;;;19.83;;
18162;SDS011;9206;50.994;4.538;2024-03-08T05:13:04;27.47;;;20.03;;
18162;SDS011;9206;50.994;4.538;2024-03-08T05:15:51;26.13;;;19.40;;
18162;SDS011;9206;50.994;4.538;2024-03-08T05:21:29;33.67;;;21.07;;
18162;SDS011;9206;50.994;4.538;2024-03-08T05:27:07;30.70;;;21.17;;
18162;SDS011;9206;50.994;4.538;2024-03-08T05:29:57;31.90;;;20.17;;
18162;SDS011;9206;50.994;4.538;2024-03-08T05:32:45;28.93;;;20.73;;
18162;SDS011;9206;50.994;4.538;2024-03-08T05:35:33;28.80;;;19.70;;
18162;SDS011;9206;50.994;4.538;2024-03-08T05:38:21;30.33;;;20.93;;
18162;SDS011;9206;50.994;4.538;2024-03-08T05:41:08;30.33;;;21.17;;
18162;SDS011;9206;50.994;4.538;2024-03-08T05:46:46;29.60;;;20.90;;
18162;SDS011;9206;50.994;4.538;2024-03-08T05:52:30;29.60;;;20.37;;
18162;SDS011;9206;50.994;4.538;2024-03-08T05:55:17;28.37;;;20.03;;
18162;SDS011;9206;50.994;4.538;2024-03-08T05:58:07;28.57;;;20.37;;
18162;SDS011;9206;50.994;4.538;2024-03-08T06:00:58;31.07;;;21.50;;
18162;SDS011;9206;50.994;4.538;2024-03-08T06:03:48;30.40;;;20.83;;
18162;SDS011;9206;50.994;4.538;2024-03-08T06:06:35;28.13;;;20.43;;
18162;SDS011;9206;50.994;4.538;2024-03-08T06:09:25;30.57;;;20.43;;
18162;SDS011;9206;50.994;4.538;2024-03-08T06:12:16;30.00;;;20.70;;
18162;SDS011;9206;50.994;4.538;2024-03-08T06:15:06;31.53;;;20.73;;
18162;SDS011;9206;50.994;4.538;2024-03-08T06:17:56;32.27;;;20.50;;
18162;SDS011;9206;50.994;4.538;2024-03-08T06:20:44;31.70;;;20.97;;
18162;SDS011;9206;50.994;4.538;2024-03-08T06:23:37;33.83;;;21.07;;
18162;SDS011;9206;50.994;4.538;2024-03-08T06:26:25;28.67;;;20.17;;
18162;SDS011;9206;50.994;4.538;2024-03-08T06:29:15;30.13;;;20.43;;
18162;SDS011;9206;50.994;4.538;2024-03-08T06:32:05;29.17;;;19.80;;
18162;SDS011;9206;50.994;4.538;2024-03-08T06:34:55;30.73;;;21.07;;
18162;SDS011;9206;50.994;4.538;2024-03-08T06:37:46;31.00;;;20.57;;
18162;SDS011;9206;50.994;4.538;2024-03-08T06:40:33;33.57;;;21.20;;
18162;SDS011;9206;50.994;4.538;2024-03-08T06:43:24;31.80;;;19.23;;
18162;SDS011;9206;50.994;4.538;2024-03-08T06:46:19;32.40;;;21.07;;
18162;SDS011;9206;50.994;4.538;2024-03-08T06:49:06;29.57;;;21.10;;
18162;SDS011;9206;50.994;4.538;2024-03-08T06:51:57;31.23;;;19.83;;
18162;SDS011;9206;50.994;4.538;2024-03-08T06:54:49;29.03;;;19.40;;
18162;SDS011;9206;50.994;4.538;2024-03-08T06:57:39;29.47;;;20.37;;
18162;SDS011;9206;50.994;4.538;2024-03-08T07:00:27;27.27;;;18.67;;
18162;SDS011;9206;50.994;4.538;2024-03-08T07:03:24;32.57;;;20.73;;
18162;SDS011;9206;50.994;4.538;2024-03-08T07:06:14;31.40;;;21.13;;
18162;SDS011;9206;50.994;4.538;2024-03-08T07:09:09;30.87;;;20.37;;
18162;SDS011;9206;50.994;4.538;2024-03-08T07:12:05;27.47;;;19.23;;
18162;SDS011;9206;50.994;4.538;2024-03-08T07:14:52;34.67;;;20.17;;
18162;SDS011;9206;50.994;4.538;2024-03-08T07:17:41;30.00;;;19.67;;
18162;SDS011;9206;50.994;4.538;2024-03-08T07:20:35;30.10;;;19.67;;
18162;SDS011;9206;50.994;4.538;2024-03-08T07:23:23;30.63;;;19.70;;
18162;SDS011;9206;50.994;4.538;2024-03-08T07:26:31;34.27;;;19.03;;
18162;SDS011;9206;50.994;4.538;2024-03-08T07:29:20;30.20;;;18.67;;
18162;SDS011;9206;50.994;4.538;2024-03-08T07:35:09;32.17;;;19.77;;
18162;SDS011;9206;50.994;4.538;2024-03-08T07:37:57;31.77;;;20.03;;
18162;SDS011;9206;50.994;4.538;2024-03-08T07:40:48;27.77;;;19.50;;
18162;SDS011;9206;50.994;4.538;2024-03-08T07:43:35;29.63;;;19.30;;
18162;SDS011;9206;50.994;4.538;2024-03-08T07:46:26;26.90;;;19.07;;
18162;SDS011;9206;50.994;4.538;2024-03-08T07:49:14;29.77;;;20.07;;
18162;SDS011;9206;50.994;4.538;2024-03-08T07:54:52;27.53;;;17.73;;
18162;SDS011;9206;50.994;4.538;2024-03-08T07:57:45;26.50;;;18.63;;
18162;SDS011;9206;50.994;4.538;2024-03-08T08:00:36;31.10;;;19.30;;
18162;SDS011;9206;50.994;4.538;2024-03-08T08:03:27;29.90;;;18.53;;
18162;SDS011;9206;50.994;4.538;2024-03-08T08:06:15;30.50;;;18.20;;
18162;SDS011;9206;50.994;4.538;2024-03-08T08:09:02;27.37;;;18.67;;
18162;SDS011;9206;50.994;4.538;2024-03-08T08:11:50;26.83;;;17.80;;
18162;SDS011;9206;50.994;4.538;2024-03-08T08:17:31;27.53;;;18.03;;
18162;SDS011;9206;50.994;4.538;2024-03-08T08:20:24;28.20;;;19.47;;
18162;SDS011;9206;50.994;4.538;2024-03-08T08:23:13;26.40;;;17.73;;
18162;SDS011;9206;50.994;4.538;2024-03-08T08:26:00;25.53;;;17.67;;
18162;SDS011;9206;50.994;4.538;2024-03-08T08:28:48;25.97;;;17.40;;
18162;SDS011;9206;50.994;4.538;2024-03-08T08:31:35;26.37;;;17.90;;
18162;SDS011;9206;50.994;4.538;2024-03-08T08:34:23;23.20;;;16.97;;
18162;SDS011;9206;50.994;4.538;2024-03-08T08:37:14;23.67;;;15.97;;
18162;SDS011;9206;50.994;4.538;2024-03-08T08:40:01;21.87;;;16.10;;
18162;SDS011;9206;50.994;4.538;2024-03-08T08:42:54;21.87;;;15.70;;
18162;SDS011;9206;50.994;4.538;2024-03-08T08:45:43;24.23;;;15.70;;
18162;SDS011;9206;50.994;4.538;2024-03-08T08:48:32;18.43;;;15.67;;
18162;SDS011;9206;50.994;4.538;2024-03-08T08:51:22;19.77;;;15.53;;
18162;SDS011;9206;50.994;4.538;2024-03-08T08:54:16;19.80;;;15.43;;
18162;SDS011;9206;50.994;4.538;2024-03-08T08:57:03;17.03;;;15.13;;
18162;SDS011;9206;50.994;4.538;2024-03-08T08:59:56;20.37;;;16.07;;
18162;SDS011;9206;50.994;4.538;2024-03-08T09:02:43;17.67;;;14.20;;
18162;SDS011;9206;50.994;4.538;2024-03-08T09:05:31;20.80;;;15.23;;
18162;SDS011;9206;50.994;4.538;2024-03-08T09:11:11;15.77;;;14.07;;
18162;SDS011;9206;50.994;4.538;2024-03-08T09:13:58;20.33;;;14.93;;
18162;SDS011;9206;50.994;4.538;2024-03-08T09:16:50;17.13;;;14.77;;
18162;SDS011;9206;50.994;4.538;2024-03-08T09:19:40;17.73;;;14.53;;
18162;SDS011;9206;50.994;4.538;2024-03-08T09:22:28;18.27;;;14.57;;
18162;SDS011;9206;50.994;4.538;2024-03-08T09:25:17;15.90;;;14.23;;
18162;SDS011;9206;50.994;4.538;2024-03-08T09:28:17;14.67;;;13.07;;
18162;SDS011;9206;50.994;4.538;2024-03-08T09:31:11;17.57;;;13.70;;
18162;SDS011;9206;50.994;4.538;2024-03-08T09:34:01;15.37;;;13.17;;
18162;SDS011;9206;50.994;4.538;2024-03-08T09:36:49;16.93;;;13.40;;
18162;SDS011;9206;50.994;4.538;2024-03-08T09:39:37;16.57;;;13.93;;
18162;SDS011;9206;50.994;4.538;2024-03-08T09:42:27;15.23;;;13.63;;
18162;SDS011;9206;50.994;4.538;2024-03-08T09:45:16;14.83;;;13.17;;
18162;SDS011;9206;50.994;4.538;2024-03-08T09:48:04;14.77;;;13.00;;
18162;SDS011;9206;50.994;4.538;2024-03-08T09:53:48;16.10;;;13.27;;
18162;SDS011;9206;50.994;4.538;2024-03-08T09:56:35;17.83;;;12.93;;
18162;SDS011;9206;50.994;4.538;2024-03-08T09:59:24;15.37;;;12.90;;
18162;SDS011;9206;50.994;4.538;2024-03-08T10:02:35;15.10;;;13.60;;
18162;SDS011;9206;50.994;4.538;2024-03-08T10:05:24;14.20;;;12.67;;
18162;SDS011;9206;50.994;4.538;2024-03-08T10:08:17;16.03;;;13.20;;
18162;SDS011;9206;50.994;4.538;2024-03-08T10:16:49;16.17;;;12.63;;
18162;SDS011;9206;50.994;4.538;2024-03-08T10:19:37;14.23;;;12.30;;
18162;SDS011;9206;50.994;4.538;2024-03-08T10:22:33;14.10;;;12.60;;
18162;SDS011;9206;50.994;4.538;2024-03-08T10:28:31;13.50;;;12.17;;
18162;SDS011;9206;50.994;4.538;2024-03-08T10:31:19;13.53;;;12.13;;
18162;SDS011;9206;50.994;4.538;2024-03-08T10:34:09;15.00;;;12.00;;
18162;SDS011;9206;50.994;4.538;2024-03-08T10:36:59;13.33;;;11.93;;
18162;SDS011;9206;50.994;4.538;2024-03-08T10:39:56;13.83;;;12.43;;
18162;SDS011;9206;50.994;4.538;2024-03-08T10:42:58;14.10;;;12.40;;
18162;SDS011;9206;50.994;4.538;2024-03-08T10:45:46;14.20;;;12.70;;
18162;SDS011;9206;50.994;4.538;2024-03-08T10:48:36;15.07;;;12.30;;
18162;SDS011;9206;50.994;4.538;2024-03-08T10:51:30;17.33;;;11.97;;
18162;SDS011;9206;50.994;4.538;2024-03-08T10:54:26;15.05;;;12.50;;
18162;SDS011;9206;50.994;4.538;2024-03-08T10:57:17;13.40;;;12.05;;
18162;SDS011;9206;50.994;4.538;2024-03-08T11:00:12;13.55;;;12.18;;
18162;SDS011;9206;50.994;4.538;2024-03-08T11:03:01;14.77;;;12.27;;
18162;SDS011;9206;50.994;4.538;2024-03-08T11:05:49;14.07;;;12.63;;
18162;SDS011;9206;50.994;4.538;2024-03-08T11:08:37;13.67;;;12.30;;
18162;SDS011;9206;50.994;4.538;2024-03-08T11:11:27;14.18;;;12.38;;
18162;SDS011;9206;50.994;4.538;2024-03-08T11:17:47;13.98;;;12.45;;
18162;SDS011;9206;50.994;4.538;2024-03-08T11:20:35;14.88;;;11.88;;
18162;SDS011;9206;50.994;4.538;2024-03-08T11:23:22;13.95;;;12.27;;
18162;SDS011;9206;50.994;4.538;2024-03-08T11:26:18;13.40;;;12.00;;
18162;SDS011;9206;50.994;4.538;2024-03-08T11:32:26;16.17;;;12.80;;
18162;SDS011;9206;50.994;4.538;2024-03-08T11:35:18;14.93;;;13.37;;
18162;SDS011;9206;50.994;4.538;2024-03-08T11:38:09;12.40;;;11.10;;
18162;SDS011;9206;50.994;4.538;2024-03-08T11:44:01;14.30;;;11.77;;
18162;SDS011;9206;50.994;4.538;2024-03-08T11:46:56;12.98;;;11.63;;
18162;SDS011;9206;50.994;4.538;2024-03-08T11:49:44;13.63;;;12.02;;
18162;SDS011;9206;50.994;4.538;2024-03-08T11:52:35;12.02;;;11.00;;
18162;SDS011;9206;50.994;4.538;2024-03-08T11:55:24;11.77;;;10.77;;
18162;SDS011;9206;50.994;4.538;2024-03-08T11:58:14;13.23;;;11.48;;
18162;SDS011;9206;50.994;4.538;2024-03-08T12:01:03;15.20;;;12.48;;
18162;SDS011;9206;50.994;4.538;2024-03-08T12:03:54;13.45;;;11.98;;
18162;SDS011;9206;50.994;4.538;2024-03-08T12:06:45;13.17;;;11.87;;
18162;SDS011;9206;50.994;4.538;2024-03-08T12:09:39;17.03;;;11.60;;
18162;SDS011;9206;50.994;4.538;2024-03-08T12:12:32;12.70;;;11.43;;
18162;SDS011;9206;50.994;4.538;2024-03-08T12:15:21;12.95;;;11.50;;
18162;SDS011;9206;50.994;4.538;2024-03-08T12:18:09;13.87;;;12.50;;
18162;SDS011;9206;50.994;4.538;2024-03-08T12:21:07;13.87;;;12.47;;
18162;SDS011;9206;50.994;4.538;2024-03-08T12:24:05;13.27;;;11.90;;
18162;SDS011;9206;50.994;4.538;2024-03-08T12:26:55;16.33;;;11.87;;
18162;SDS011;9206;50.994;4.538;2024-03-08T12:29:45;14.43;;;12.37;;
18162;SDS011;9206;50.994;4.538;2024-03-08T12:32:34;14.10;;;12.40;;
18162;SDS011;9206;50.994;4.538;2024-03-08T12:35:22;12.47;;;11.27;;
18162;SDS011;9206;50.994;4.538;2024-03-08T12:38:11;13.87;;;12.10;;
18162;SDS011;9206;50.994;4.538;2024-03-08T12:40:59;12.23;;;11.20;;
18162;SDS011;9206;50.994;4.538;2024-03-08T12:43:48;12.33;;;11.10;;
18162;SDS011;9206;50.994;4.538;2024-03-08T12:46:42;15.23;;;12.57;;
18162;SDS011;9206;50.994;4.538;2024-03-08T12:49:31;12.50;;;11.40;;
18162;SDS011;9206;50.994;4.538;2024-03-08T12:52:19;12.97;;;11.70;;
18162;SDS011;9206;50.994;4.538;2024-03-08T12:55:09;14.57;;;11.87;;
18162;SDS011;9206;50.994;4.538;2024-03-08T12:57:59;14.23;;;12.03;;
18162;SDS011;9206;50.994;4.538;2024-03-08T13:00:49;15.67;;;12.40;;
18162;SDS011;9206;50.994;4.538;2024-03-08T13:03:36;13.83;;;11.53;;
18162;SDS011;9206;50.994;4.538;2024-03-08T13:06:28;18.13;;;12.10;;
18162;SDS011;9206;50.994;4.538;2024-03-08T13:09:19;14.33;;;12.17;;
18162;SDS011;9206;50.994;4.538;2024-03-08T13:12:10;13.33;;;11.67;;
18162;SDS011;9206;50.994;4.538;2024-03-08T13:15:04;13.63;;;12.20;;
18162;SDS011;9206;50.994;4.538;2024-03-08T13:17:57;13.60;;;12.20;;
18162;SDS011;9206;50.994;4.538;2024-03-08T13:20:46;21.33;;;12.23;;
18162;SDS011;9206;50.994;4.538;2024-03-08T13:23:37;13.00;;;11.67;;
18162;SDS011;9206;50.994;4.538;2024-03-08T13:32:10;13.30;;;11.90;;
18162;SDS011;9206;50.994;4.538;2024-03-08T13:35:04;13.63;;;12.20;;
18162;SDS011;9206;50.994;4.538;2024-03-08T13:37:58;14.00;;;12.03;;
18162;SDS011;9206;50.994;4.538;2024-03-08T13:40:48;13.37;;;11.83;;
18162;SDS011;9206;50.994;4.538;2024-03-08T13:43:37;13.80;;;12.37;;
18162;SDS011;9206;50.994;4.538;2024-03-08T13:46:27;14.17;;;12.70;;
18162;SDS011;9206;50.994;4.538;2024-03-08T13:49:14;13.03;;;11.67;;
18162;SDS011;9206;50.994;4.538;2024-03-08T13:52:01;12.80;;;11.40;;
18162;SDS011;9206;50.994;4.538;2024-03-08T13:57:45;14.77;;;11.47;;
18162;SDS011;9206;50.994;4.538;2024-03-08T14:03:30;13.03;;;11.70;;
18162;SDS011;9206;50.994;4.538;2024-03-08T14:06:19;13.57;;;11.67;;
18162;SDS011;9206;50.994;4.538;2024-03-08T14:09:12;13.03;;;11.47;;
18162;SDS011;9206;50.994;4.538;2024-03-08T14:12:05;13.87;;;12.30;;
18162;SDS011;9206;50.994;4.538;2024-03-08T14:14:53;13.30;;;11.63;;
18162;SDS011;9206;50.994;4.538;2024-03-08T14:17:41;13.30;;;11.77;;
18162;SDS011;9206;50.994;4.538;2024-03-08T14:20:31;11.63;;;10.60;;
18162;SDS011;9206;50.994;4.538;2024-03-08T14:23:18;16.33;;;11.13;;
18162;SDS011;9206;50.994;4.538;2024-03-08T14:26:05;12.63;;;11.33;;
18162;SDS011;9206;50.994;4.538;2024-03-08T14:28:55;13.80;;;12.30;;
18162;SDS011;9206;50.994;4.538;2024-03-08T14:31:45;13.30;;;11.03;;
18162;SDS011;9206;50.994;4.538;2024-03-08T14:34:35;15.63;;;11.87;;
18162;SDS011;9206;50.994;4.538;2024-03-08T14:37:27;11.87;;;10.63;;
18162;SDS011;9206;50.994;4.538;2024-03-08T14:40:14;13.57;;;11.17;;
18162;SDS011;9206;50.994;4.538;2024-03-08T14:43:02;14.43;;;11.87;;
18162;SDS011;9206;50.994;4.538;2024-03-08T14:45:56;12.27;;;11.07;;
18162;SDS011;9206;50.994;4.538;2024-03-08T14:48:43;15.47;;;12.30;;
18162;SDS011;9206;50.994;4.538;2024-03-08T14:51:30;17.20;;;11.87;;
18162;SDS011;9206;50.994;4.538;2024-03-08T14:54:20;12.83;;;11.50;;
18162;SDS011;9206;50.994;4.538;2024-03-08T14:57:08;12.73;;;11.53;;
18162;SDS011;9206;50.994;4.538;2024-03-08T14:59:57;13.53;;;12.13;;
18162;SDS011;9206;50.994;4.538;2024-03-08T15:02:48;13.13;;;11.77;;
18162;SDS011;9206;50.994;4.538;2024-03-08T15:05:38;15.47;;;12.30;;
18162;SDS011;9206;50.994;4.538;2024-03-08T15:08:34;12.03;;;10.83;;
18162;SDS011;9206;50.994;4.538;2024-03-08T15:11:23;14.47;;;12.07;;
18162;SDS011;9206;50.994;4.538;2024-03-08T15:14:10;13.40;;;11.20;;
18162;SDS011;9206;50.994;4.538;2024-03-08T15:16:59;13.27;;;12.00;;
18162;SDS011;9206;50.994;4.538;2024-03-08T15:22:46;13.47;;;12.07;;
18162;SDS011;9206;50.994;4.538;2024-03-08T15:25:34;13.60;;;11.43;;
18162;SDS011;9206;50.994;4.538;2024-03-08T15:28:26;19.27;;;12.27;;
18162;SDS011;9206;50.994;4.538;2024-03-08T15:31:21;14.27;;;11.60;;
18162;SDS011;9206;50.994;4.538;2024-03-08T15:34:13;14.33;;;11.87;;
18162;SDS011;9206;50.994;4.538;2024-03-08T15:39:52;14.13;;;11.67;;
18162;SDS011;9206;50.994;4.538;2024-03-08T15:42:42;12.97;;;11.63;;
18162;SDS011;9206;50.994;4.538;2024-03-08T15:45:35;13.07;;;11.70;;
18162;SDS011;9206;50.994;4.538;2024-03-08T15:48:24;13.33;;;11.93;;
18162;SDS011;9206;50.994;4.538;2024-03-08T15:54:02;12.63;;;11.33;;
18162;SDS011;9206;50.994;4.538;2024-03-08T15:56:52;12.53;;;11.23;;
18162;SDS011;9206;50.994;4.538;2024-03-08T16:02:36;17.77;;;11.67;;
18162;SDS011;9206;50.994;4.538;2024-03-08T16:05:26;12.07;;;10.80;;
18162;SDS011;9206;50.994;4.538;2024-03-08T16:08:16;18.43;;;11.50;;
18162;SDS011;9206;50.994;4.538;2024-03-08T16:11:08;13.53;;;11.23;;
18162;SDS011;9206;50.994;4.538;2024-03-08T16:13:55;15.90;;;11.43;;
18162;SDS011;9206;50.994;4.538;2024-03-08T16:19:35;12.23;;;10.73;;
18162;SDS011;9206;50.994;4.538;2024-03-08T16:25:18;13.67;;;10.70;;
18162;SDS011;9206;50.994;4.538;2024-03-08T16:28:05;12.60;;;11.17;;
18162;SDS011;9206;50.994;4.538;2024-03-08T16:30:53;13.70;;;10.63;;
18162;SDS011;9206;50.994;4.538;2024-03-08T16:33:42;13.37;;;11.97;;
18162;SDS011;9206;50.994;4.538;2024-03-08T16:39:25;13.40;;;12.00;;
18162;SDS011;9206;50.994;4.538;2024-03-08T16:42:15;13.00;;;10.90;;
18162;SDS011;9206;50.994;4.538;2024-03-08T16:47:56;14.30;;;10.90;;
18162;SDS011;9206;50.994;4.538;2024-03-08T16:50:44;12.30;;;11.00;;
18162;SDS011;9206;50.994;4.538;2024-03-08T16:53:34;12.60;;;11.23;;
18162;SDS011;9206;50.994;4.538;2024-03-08T16:56:24;11.33;;;10.27;;
18162;SDS011;9206;50.994;4.538;2024-03-08T16:59:11;13.40;;;11.07;;
18162;SDS011;9206;50.994;4.538;2024-03-08T17:01:59;11.13;;;9.63;;
18162;SDS011;9206;50.994;4.538;2024-03-08T17:04:47;13.53;;;10.63;;
18162;SDS011;9206;50.994;4.538;2024-03-08T17:07:39;13.37;;;10.43;;
18162;SDS011;9206;50.994;4.538;2024-03-08T17:10:27;13.30;;;10.17;;
18162;SDS011;9206;50.994;4.538;2024-03-08T17:16:06;11.43;;;10.23;;
18162;SDS011;9206;50.994;4.538;2024-03-08T17:21:48;12.47;;;10.77;;
18162;SDS011;9206;50.994;4.538;2024-03-08T17:30:17;12.93;;;11.20;;
18162;SDS011;9206;50.994;4.538;2024-03-08T17:33:08;13.47;;;10.20;;
18162;SDS011;9206;50.994;4.538;2024-03-08T17:35:59;11.50;;;10.30;;
18162;SDS011;9206;50.994;4.538;2024-03-08T17:38:55;11.43;;;10.23;;
18162;SDS011;9206;50.994;4.538;2024-03-08T17:41:42;11.53;;;10.33;;
18162;SDS011;9206;50.994;4.538;2024-03-08T17:44:35;12.47;;;9.80;;
18162;SDS011;9206;50.994;4.538;2024-03-08T17:47:26;11.37;;;10.10;;
18162;SDS011;9206;50.994;4.538;2024-03-08T17:50:14;11.93;;;9.87;;
18162;SDS011;9206;50.994;4.538;2024-03-08T17:53:04;12.10;;;10.27;;
18162;SDS011;9206;50.994;4.538;2024-03-08T17:55:52;12.27;;;9.53;;
18162;SDS011;9206;50.994;4.538;2024-03-08T17:58:44;16.80;;;10.57;;
18162;SDS011;9206;50.994;4.538;2024-03-08T18:01:33;11.30;;;10.10;;
18162;SDS011;9206;50.994;4.538;2024-03-08T18:04:24;15.73;;;10.23;;
18162;SDS011;9206;50.994;4.538;2024-03-08T18:07:12;13.33;;;11.10;;
18162;SDS011;9206;50.994;4.538;2024-03-08T18:12:51;14.80;;;10.57;;
18162;SDS011;9206;50.994;4.538;2024-03-08T18:15:40;11.30;;;10.17;;
18162;SDS011;9206;50.994;4.538;2024-03-08T18:18:31;14.03;;;10.97;;
18162;SDS011;9206;50.994;4.538;2024-03-08T18:21:18;11.87;;;10.67;;
18162;SDS011;9206;50.994;4.538;2024-03-08T18:24:08;11.87;;;10.67;;
18162;SDS011;9206;50.994;4.538;2024-03-08T18:29:45;14.07;;;11.27;;
18162;SDS011;9206;50.994;4.538;2024-03-08T18:32:36;12.83;;;10.33;;
18162;SDS011;9206;50.994;4.538;2024-03-08T18:35:25;14.80;;;11.03;;
18162;SDS011;9206;50.994;4.538;2024-03-08T18:38:14;13.67;;;10.80;;
18162;SDS011;9206;50.994;4.538;2024-03-08T18:43:57;12.93;;;10.83;;
18162;SDS011;9206;50.994;4.538;2024-03-08T18:46:45;14.57;;;11.43;;
18162;SDS011;9206;50.994;4.538;2024-03-08T18:49:32;12.27;;;10.83;;
18162;SDS011;9206;50.994;4.538;2024-03-08T18:52:22;14.97;;;11.07;;
18162;SDS011;9206;50.994;4.538;2024-03-08T18:55:10;13.23;;;10.93;;